createdAt,value
2023-05-23T00:00:56.428Z,2.20
2023-05-23T00:03:09.189Z,1.70
2023-05-23T00:05:19.466Z,2.10
2023-05-23T00:07:29.135Z,1.80
2023-05-23T00:09:38.463Z,2.10
2023-05-23T00:11:48.158Z,2.00
2023-05-23T00:13:57.950Z,2.60
2023-05-23T00:16:09.932Z,1.80
2023-05-23T00:18:31.063Z,1.80
2023-05-23T00:20:41.509Z,1.90
2023-05-23T00:22:50.953Z,2.10
2023-05-23T00:25:03.665Z,1.70
2023-05-23T00:27:13.287Z,1.60
2023-05-23T00:29:22.782Z,2.30
2023-05-23T00:31:33.320Z,2.20
2023-05-23T00:33:52.121Z,2.10
2023-05-23T00:36:04.896Z,2.10
2023-05-23T00:38:14.753Z,2.30
2023-05-23T00:40:26.978Z,2.00
2023-05-23T00:42:36.640Z,2.00
2023-05-23T00:44:46.098Z,2.10
2023-05-23T00:46:57.958Z,1.80
2023-05-23T00:49:11.456Z,3.00
2023-05-23T00:51:22.790Z,2.50
2023-05-23T00:53:32.589Z,2.20
2023-05-23T00:55:42.436Z,2.40
2023-05-23T00:57:52.427Z,2.00
2023-05-23T01:00:02.486Z,2.10
2023-05-23T01:02:15.252Z,2.00
2023-05-23T01:04:27.223Z,2.60
2023-05-23T01:06:37.242Z,2.20
2023-05-23T01:08:46.803Z,2.40
2023-05-23T01:11:04.029Z,2.00
2023-05-23T01:13:23.639Z,2.50
2023-05-23T01:15:43.989Z,2.40
2023-05-23T01:18:00.479Z,1.70
2023-05-23T01:20:13.482Z,2.70
2023-05-23T01:22:34.746Z,2.10
2023-05-23T01:24:53.932Z,2.20
2023-05-23T01:27:26.329Z,2.30
2023-05-23T01:29:40.296Z,2.20
2023-05-23T01:31:51.813Z,2.40
2023-05-23T01:34:02.820Z,3.90
2023-05-23T01:36:23.102Z,2.60
2023-05-23T01:38:34.166Z,2.50
2023-05-23T01:40:43.564Z,2.40
2023-05-23T01:42:53.790Z,2.20
2023-05-23T01:45:03.738Z,2.30
2023-05-23T01:47:14.544Z,3.00
2023-05-23T01:49:25.772Z,2.50
2023-05-23T01:53:45.207Z,2.30
2023-05-23T01:55:55.334Z,2.40
2023-05-23T01:58:06.796Z,2.20
2023-05-23T02:00:17.349Z,2.80
2023-05-23T02:02:28.855Z,2.30
2023-05-23T02:04:38.731Z,2.50
2023-05-23T02:06:48.124Z,2.80
2023-05-23T02:08:57.394Z,2.50
2023-05-23T02:11:08.921Z,2.20
2023-05-23T02:13:21.953Z,2.10
2023-05-23T02:15:31.921Z,2.30
2023-05-23T02:17:41.826Z,2.20
2023-05-23T02:19:51.285Z,1.90
2023-05-23T02:22:01.369Z,2.20
2023-05-23T02:24:10.802Z,2.60
2023-05-23T02:26:23.400Z,2.30
2023-05-23T02:28:32.929Z,1.90
2023-05-23T02:30:42.309Z,2.10
2023-05-23T02:32:53.647Z,2.40
2023-05-23T02:35:03.445Z,2.20
2023-05-23T02:37:16.844Z,2.20
2023-05-23T02:39:26.125Z,2.10
2023-05-23T02:41:39.188Z,2.40
2023-05-23T02:43:52.338Z,2.20
2023-05-23T02:46:02.026Z,2.20
2023-05-23T02:48:12.339Z,2.20
2023-05-23T02:50:41.838Z,2.10
2023-05-23T02:52:52.088Z,1.70
2023-05-23T02:55:10.767Z,1.90
2023-05-23T02:57:25.656Z,2.20
2023-05-23T02:59:46.048Z,2.20
2023-05-23T03:01:55.606Z,2.40
2023-05-23T03:04:09.103Z,2.10
2023-05-23T03:06:22.779Z,1.80
2023-05-23T03:08:32.731Z,2.20
2023-05-23T03:10:42.054Z,1.50
2023-05-23T03:12:54.578Z,2.40
2023-05-23T03:15:04.440Z,2.10
2023-05-23T03:17:17.722Z,1.70
2023-05-23T03:19:27.841Z,2.40
2023-05-23T03:21:37.599Z,2.70
2023-05-23T03:23:53.296Z,2.30
2023-05-23T03:26:03.910Z,2.40
2023-05-23T03:28:17.182Z,1.80
2023-05-23T03:30:30.079Z,2.50
2023-05-23T03:32:39.565Z,2.00
2023-05-23T03:34:58.989Z,2.30
2023-05-23T03:37:08.560Z,1.90
2023-05-23T03:39:18.051Z,1.60
2023-05-23T03:41:27.756Z,2.50
2023-05-23T03:43:40.419Z,1.80
2023-05-23T03:45:49.986Z,1.70
2023-05-23T03:48:03.425Z,2.00
2023-05-23T03:50:22.740Z,1.60
2023-05-23T03:52:32.181Z,2.00
2023-05-23T03:54:43.009Z,1.70
2023-05-23T03:56:53.460Z,1.90
2023-05-23T03:59:06.148Z,2.30
2023-05-23T04:01:16.041Z,1.70
2023-05-23T04:03:26.619Z,1.80
2023-05-23T04:05:45.826Z,1.50
2023-05-23T04:07:55.851Z,1.80
2023-05-23T04:10:06.708Z,2.10
2023-05-23T04:12:25.345Z,1.80
2023-05-23T04:14:35.115Z,1.60
2023-05-23T04:16:45.253Z,1.80
2023-05-23T04:18:55.895Z,2.30
2023-05-23T04:21:09.160Z,2.30
2023-05-23T04:23:23.769Z,2.30
2023-05-23T04:25:36.917Z,2.20
2023-05-23T04:27:54.711Z,2.00
2023-05-23T04:30:14.702Z,2.40
2023-05-23T04:32:27.536Z,2.10
2023-05-23T04:34:41.580Z,1.90
2023-05-23T04:36:51.771Z,2.30
2023-05-23T04:39:04.855Z,1.60
2023-05-23T04:41:16.751Z,2.00
2023-05-23T04:43:44.823Z,2.10
2023-05-23T04:46:07.546Z,1.70
2023-05-23T04:48:21.965Z,2.30
2023-05-23T04:50:33.654Z,2.10
2023-05-23T04:52:43.650Z,2.90
2023-05-23T04:54:54.507Z,2.00
2023-05-23T04:57:04.482Z,2.50
2023-05-23T04:59:18.363Z,3.20
2023-05-23T05:01:28.426Z,2.20
2023-05-23T05:03:42.127Z,2.10
2023-05-23T05:06:12.157Z,2.70
2023-05-23T05:08:21.388Z,2.70
2023-05-23T05:10:31.422Z,3.10
2023-05-23T05:12:41.603Z,1.90
2023-05-23T05:14:53.602Z,2.90
2023-05-23T05:17:03.295Z,2.40
2023-05-23T05:19:20.095Z,2.20
2023-05-23T05:21:29.717Z,3.10
2023-05-23T05:23:39.771Z,2.30
2023-05-23T05:25:51.705Z,2.80
2023-05-23T05:28:03.491Z,2.60
2023-05-23T05:30:24.159Z,2.40
2023-05-23T05:32:38.550Z,2.70
2023-05-23T05:34:49.529Z,2.50
2023-05-23T05:37:00.799Z,3.00
2023-05-23T05:39:10.513Z,3.10
2023-05-23T05:41:19.862Z,2.40
2023-05-23T05:43:31.799Z,2.50
2023-05-23T05:45:41.484Z,2.70
2023-05-23T05:47:51.034Z,3.00
2023-05-23T05:50:02.065Z,3.10
2023-05-23T05:52:12.632Z,3.00
2023-05-23T05:54:22.553Z,3.00
2023-05-23T05:56:32.534Z,2.50
2023-05-23T05:58:46.054Z,2.70
2023-05-23T06:03:08.574Z,2.60
2023-05-23T06:05:41.249Z,2.70
2023-05-23T06:07:51.965Z,3.10
2023-05-23T06:10:01.530Z,2.80
2023-05-23T06:12:11.611Z,3.00
2023-05-23T06:14:20.859Z,2.70
2023-05-23T06:16:30.928Z,2.90
2023-05-23T06:18:44.001Z,2.60
2023-05-23T06:20:53.629Z,3.20
2023-05-23T06:23:05.962Z,3.40
2023-05-23T06:25:15.452Z,2.50
2023-05-23T06:27:27.994Z,2.80
2023-05-23T06:29:37.796Z,3.10
2023-05-23T06:31:50.457Z,2.60
2023-05-23T06:34:02.893Z,3.00
2023-05-23T06:36:12.494Z,3.30
2023-05-23T06:38:22.221Z,2.80
2023-05-23T06:40:32.007Z,2.50
2023-05-23T06:42:42.006Z,2.30
2023-05-23T06:45:00.017Z,2.90
2023-05-23T06:47:10.013Z,2.60
2023-05-23T06:49:20.317Z,2.70
2023-05-23T06:51:32.918Z,2.70
2023-05-23T06:53:42.948Z,2.90
2023-05-23T06:56:01.858Z,2.70
2023-05-23T06:58:15.057Z,2.20
2023-05-23T07:00:28.766Z,2.30
2023-05-23T07:02:45.972Z,2.70
2023-05-23T07:04:55.842Z,2.90
2023-05-23T07:07:26.372Z,3.10
2023-05-23T07:09:52.564Z,2.50
2023-05-23T07:12:02.128Z,2.30
2023-05-23T07:14:17.021Z,2.80
2023-05-23T07:16:29.528Z,2.70
2023-05-23T07:18:43.428Z,2.90
2023-05-23T07:20:52.811Z,2.80
2023-05-23T07:23:12.474Z,3.10
2023-05-23T07:25:23.725Z,2.70
2023-05-23T07:27:33.003Z,3.00
2023-05-23T07:29:42.790Z,3.10
2023-05-23T07:31:53.912Z,2.70
2023-05-23T07:34:03.822Z,2.70
2023-05-23T07:36:19.603Z,3.20
2023-05-23T07:38:30.277Z,2.30
2023-05-23T07:40:58.911Z,2.90
2023-05-23T07:43:16.744Z,2.70
2023-05-23T07:45:26.422Z,2.80
2023-05-23T07:47:36.173Z,3.40
2023-05-23T07:49:46.094Z,2.70
2023-05-23T07:51:58.659Z,3.80
2023-05-23T07:54:11.559Z,3.10
2023-05-23T07:56:23.518Z,2.40
2023-05-23T07:58:32.856Z,2.80
2023-05-23T08:00:45.729Z,2.90
2023-05-23T08:03:01.805Z,3.50
2023-05-23T08:05:15.706Z,2.90
2023-05-23T08:07:25.387Z,2.60
2023-05-23T08:09:40.711Z,3.20
2023-05-23T08:11:50.746Z,3.00
2023-05-23T08:14:11.108Z,3.00
2023-05-23T08:16:29.931Z,2.60
2023-05-23T08:18:40.241Z,3.30
2023-05-23T08:20:49.601Z,3.20
2023-05-23T08:22:59.224Z,2.80
2023-05-23T08:25:09.770Z,2.70
2023-05-23T08:27:21.849Z,2.80
2023-05-23T08:29:35.479Z,2.90
2023-05-23T08:31:55.004Z,2.80
2023-05-23T08:34:04.621Z,2.90
2023-05-23T08:36:14.164Z,2.40
2023-05-23T08:38:25.148Z,3.40
2023-05-23T08:40:53.601Z,2.90
2023-05-23T08:43:04.225Z,2.80
2023-05-23T08:45:14.942Z,2.50
2023-05-23T08:47:28.106Z,3.10
2023-05-23T08:49:42.674Z,2.70
2023-05-23T08:51:58.853Z,3.30
2023-05-23T08:54:13.506Z,2.70
2023-05-23T08:56:24.775Z,3.00
2023-05-23T08:58:35.899Z,2.50
2023-05-23T09:00:46.622Z,3.30
2023-05-23T09:03:00.786Z,3.10
2023-05-23T09:05:31.720Z,2.70
2023-05-23T09:09:51.337Z,2.80
2023-05-23T09:12:05.376Z,2.90
2023-05-23T09:14:18.381Z,3.10
2023-05-23T09:16:33.955Z,3.10
2023-05-23T09:18:47.143Z,2.90
2023-05-23T09:20:57.971Z,3.10
2023-05-23T09:23:10.011Z,3.50
2023-05-23T09:25:22.115Z,2.90
2023-05-23T09:27:36.504Z,3.60
2023-05-23T09:29:47.765Z,3.00
2023-05-23T09:32:12.126Z,3.60
2023-05-23T09:34:24.852Z,2.90
2023-05-23T09:36:48.991Z,2.20
2023-05-23T09:39:00.087Z,3.80
2023-05-23T09:41:13.983Z,2.70
2023-05-23T09:43:25.882Z,2.90
2023-05-23T09:45:35.648Z,3.60
2023-05-23T09:47:53.459Z,2.60
2023-05-23T09:50:02.951Z,2.80
2023-05-23T09:52:12.959Z,3.00
2023-05-23T09:54:22.364Z,2.70
2023-05-23T09:56:31.947Z,2.70
2023-05-23T09:58:45.749Z,3.10
2023-05-23T10:03:36.893Z,3.00
2023-05-23T10:06:12.537Z,3.20
2023-05-23T10:08:30.301Z,3.40
2023-05-23T10:11:07.945Z,3.70
2023-05-23T10:13:30.182Z,2.60
2023-05-23T10:15:44.555Z,3.30
2023-05-23T10:18:13.035Z,3.70
2023-05-23T10:20:27.028Z,3.30
2023-05-23T10:22:40.837Z,2.60
2023-05-23T10:24:50.550Z,2.90
2023-05-23T10:27:00.108Z,2.60
2023-05-23T10:29:10.644Z,3.00
2023-05-23T10:31:22.431Z,3.10
2023-05-23T10:33:34.828Z,2.70
2023-05-23T10:35:54.245Z,2.80
2023-05-23T10:38:10.574Z,2.80
2023-05-23T10:40:30.406Z,3.80
2023-05-23T10:42:57.904Z,2.50
2023-05-23T10:45:21.769Z,3.00
2023-05-23T10:47:31.852Z,3.30
2023-05-23T10:49:46.423Z,2.60
2023-05-23T10:51:56.337Z,2.90
2023-05-23T10:54:12.435Z,3.50
2023-05-23T10:56:41.999Z,3.80
2023-05-23T10:59:21.480Z,3.00
2023-05-23T11:01:30.874Z,3.10
2023-05-23T11:03:54.006Z,3.30
2023-05-23T11:06:06.069Z,2.90
2023-05-23T11:08:18.128Z,2.80
2023-05-23T11:10:27.754Z,3.10
2023-05-23T11:12:45.217Z,2.80
2023-05-23T11:14:58.325Z,3.50
2023-05-23T11:17:19.901Z,2.80
2023-05-23T11:19:38.682Z,4.00
2023-05-23T11:22:10.239Z,3.20
2023-05-23T11:24:19.436Z,3.50
2023-05-23T11:26:35.621Z,2.60
2023-05-23T11:29:01.791Z,3.10
2023-05-23T11:31:11.994Z,3.30
2023-05-23T11:33:21.696Z,3.10
2023-05-23T11:35:34.494Z,3.50
2023-05-23T11:37:45.312Z,3.60
2023-05-23T11:39:54.519Z,3.30
2023-05-23T11:42:07.992Z,2.60
2023-05-23T11:44:20.639Z,3.70
2023-05-23T11:46:30.564Z,3.40
2023-05-23T11:48:46.189Z,3.10
2023-05-23T11:50:58.599Z,3.80
2023-05-23T11:53:08.669Z,3.30
2023-05-23T11:55:18.507Z,3.30
2023-05-23T11:57:28.326Z,3.00
2023-05-23T11:59:38.183Z,3.70
2023-05-23T12:01:47.705Z,3.00
2023-05-23T12:04:00.481Z,2.80
2023-05-23T12:06:12.730Z,3.50
2023-05-23T12:08:23.495Z,3.60
2023-05-23T12:10:32.861Z,3.30
2023-05-23T12:12:44.272Z,2.70
2023-05-23T12:14:59.558Z,3.10
2023-05-23T12:17:21.662Z,3.10
2023-05-23T12:19:31.433Z,3.70
2023-05-23T12:21:48.254Z,3.20
2023-05-23T12:24:01.747Z,3.10
2023-05-23T12:26:11.715Z,3.20
2023-05-23T12:28:36.046Z,3.40
2023-05-23T12:31:13.108Z,3.60
2023-05-23T12:33:23.831Z,3.50
2023-05-23T12:35:33.156Z,3.40
2023-05-23T12:37:52.137Z,3.50
2023-05-23T12:40:14.610Z,3.40
2023-05-23T12:42:23.996Z,3.30
2023-05-23T12:44:35.486Z,3.20
2023-05-23T12:46:44.997Z,3.20
2023-05-23T12:48:55.297Z,3.00
2023-05-23T12:51:05.399Z,3.00
2023-05-23T12:53:15.018Z,4.10
2023-05-23T12:55:24.809Z,3.00
2023-05-23T12:57:38.452Z,3.90
2023-05-23T13:00:10.350Z,3.80
2023-05-23T13:02:20.150Z,3.60
2023-05-23T13:04:41.153Z,4.00
2023-05-23T13:06:50.258Z,3.30
2023-05-23T13:08:59.709Z,3.40
2023-05-23T13:11:09.559Z,3.50
2023-05-23T13:13:18.901Z,3.60
2023-05-23T13:15:29.648Z,3.20
2023-05-23T13:17:44.406Z,3.20
2023-05-23T13:20:01.457Z,3.00
2023-05-23T13:22:11.899Z,4.40
2023-05-23T13:24:24.272Z,3.60
2023-05-23T13:26:37.117Z,3.40
2023-05-23T13:28:49.805Z,3.20
2023-05-23T13:30:58.966Z,3.30
2023-05-23T13:33:08.497Z,3.10
2023-05-23T13:35:17.914Z,3.60
2023-05-23T13:37:27.296Z,3.40
2023-05-23T13:39:40.008Z,2.80
2023-05-23T13:41:49.386Z,3.40
2023-05-23T13:44:02.242Z,2.90
2023-05-23T13:46:11.906Z,3.30
2023-05-23T13:48:21.488Z,2.90
2023-05-23T13:50:30.962Z,3.90
2023-05-23T13:53:00.324Z,3.20
2023-05-23T13:55:11.494Z,3.70
2023-05-23T13:57:20.956Z,4.50
2023-05-23T13:59:30.438Z,3.30
2023-05-23T14:01:39.854Z,2.80
2023-05-23T14:03:49.244Z,4.00
2023-05-23T14:05:58.929Z,3.90
2023-05-23T14:08:13.786Z,4.10
2023-05-23T14:12:30.885Z,3.70
2023-05-23T14:14:40.191Z,3.10
2023-05-23T14:16:54.617Z,3.00
2023-05-23T14:19:04.078Z,3.30
2023-05-23T14:21:13.576Z,3.50
2023-05-23T14:23:43.252Z,3.80
2023-05-23T14:26:12.596Z,3.60
2023-05-23T14:28:24.887Z,3.50
2023-05-23T14:30:50.628Z,3.80
2023-05-23T14:33:11.270Z,3.80
2023-05-23T14:35:22.777Z,3.20
2023-05-23T14:37:35.131Z,2.90
2023-05-23T14:39:44.683Z,3.40
2023-05-23T14:42:05.235Z,3.50
2023-05-23T14:44:14.719Z,3.50
2023-05-23T14:46:24.061Z,3.20
2023-05-23T14:48:47.829Z,3.60
2023-05-23T14:51:02.269Z,3.90
2023-05-23T14:53:31.610Z,3.40
2023-05-23T14:55:44.444Z,2.70
2023-05-23T14:57:54.662Z,3.40
2023-05-23T15:00:06.137Z,3.30
2023-05-23T15:02:24.860Z,3.90
2023-05-23T15:04:34.499Z,3.70
2023-05-23T15:06:44.439Z,3.80
2023-05-23T15:08:57.203Z,2.90
2023-05-23T15:11:07.301Z,2.90
2023-05-23T15:13:19.712Z,3.10
2023-05-23T15:15:38.181Z,3.10
2023-05-23T15:17:51.299Z,3.60
2023-05-23T15:20:02.291Z,3.30
2023-05-23T15:22:29.845Z,3.10
2023-05-23T15:24:51.312Z,2.90
2023-05-23T15:27:22.566Z,3.60
2023-05-23T15:29:33.677Z,4.20
2023-05-23T15:31:45.929Z,3.20
2023-05-23T15:34:15.823Z,3.30
2023-05-23T15:36:25.288Z,2.40
2023-05-23T15:38:34.643Z,2.90
2023-05-23T15:40:44.380Z,3.20
2023-05-23T15:43:03.100Z,3.30
2023-05-23T15:45:14.300Z,3.30
2023-05-23T15:47:43.975Z,3.40
2023-05-23T15:49:56.217Z,3.40
2023-05-23T15:52:16.048Z,2.80
2023-05-23T15:54:25.442Z,3.00
2023-05-23T15:56:34.562Z,3.70
2023-05-23T15:58:43.927Z,4.00
2023-05-23T16:01:03.356Z,3.50
2023-05-23T16:03:13.462Z,3.10
2023-05-23T16:05:33.605Z,3.10
2023-05-23T16:07:52.070Z,3.70
2023-05-23T16:10:14.108Z,3.60
2023-05-23T16:12:23.829Z,2.80
2023-05-23T16:14:33.760Z,2.90
2023-05-23T16:16:44.022Z,3.00
2023-05-23T16:18:53.692Z,2.80
2023-05-23T16:21:06.249Z,2.50
2023-05-23T16:23:26.163Z,3.00
2023-05-23T16:25:35.599Z,3.10
2023-05-23T16:27:50.797Z,2.60
2023-05-23T16:30:00.428Z,2.60
2023-05-23T16:32:13.541Z,2.70
2023-05-23T16:34:22.902Z,2.40
2023-05-23T16:36:43.968Z,2.50
2023-05-23T16:39:02.873Z,3.30
2023-05-23T16:41:12.525Z,3.60
2023-05-23T16:43:24.888Z,2.70
2023-05-23T16:45:34.253Z,2.70
2023-05-23T16:47:44.038Z,3.40
2023-05-23T16:49:53.213Z,2.30
2023-05-23T16:52:05.467Z,2.50
2023-05-23T16:54:15.396Z,2.50
2023-05-23T16:56:24.816Z,2.40
2023-05-23T16:58:36.359Z,2.40
2023-05-23T17:00:45.909Z,2.40
2023-05-23T17:02:55.435Z,2.20
2023-05-23T17:05:16.337Z,2.10
2023-05-23T17:07:25.568Z,2.20
2023-05-23T17:09:39.367Z,2.20
2023-05-23T17:11:51.736Z,2.40
2023-05-23T17:14:01.256Z,2.20
2023-05-23T17:16:14.164Z,2.50
2023-05-23T17:18:23.741Z,3.10
2023-05-23T17:20:43.955Z,2.70
2023-05-23T17:23:13.474Z,2.60
2023-05-23T17:25:27.475Z,2.60
2023-05-23T17:27:38.133Z,2.30
2023-05-23T17:29:47.718Z,2.30
2023-05-23T17:31:57.102Z,2.40
2023-05-23T17:34:18.254Z,2.30
2023-05-23T17:36:27.404Z,2.70
2023-05-23T17:38:56.751Z,2.10
2023-05-23T17:41:27.124Z,2.90
2023-05-23T17:43:47.560Z,2.30
2023-05-23T17:46:00.439Z,3.20
2023-05-23T17:48:12.924Z,2.20
2023-05-23T17:50:23.450Z,1.90
2023-05-23T17:52:43.035Z,2.40
2023-05-23T17:54:52.567Z,2.40
2023-05-23T17:57:12.411Z,2.40
2023-05-23T17:59:21.936Z,2.30
2023-05-23T18:01:31.871Z,2.30
2023-05-23T18:03:45.207Z,2.70
2023-05-23T18:06:07.645Z,2.40
2023-05-23T18:08:20.309Z,2.40
2023-05-23T18:10:49.797Z,2.50
2023-05-23T18:13:04.949Z,2.80
2023-05-23T18:15:34.343Z,2.30
2023-05-23T18:17:43.998Z,2.40
2023-05-23T18:20:14.359Z,2.30
2023-05-23T18:22:43.734Z,2.00
2023-05-23T18:24:56.345Z,2.50
2023-05-23T18:27:26.348Z,2.20
2023-05-23T18:29:38.890Z,2.40
2023-05-23T18:31:57.178Z,2.30
2023-05-23T18:34:12.345Z,2.20
2023-05-23T18:36:33.388Z,2.50
2023-05-23T18:38:46.606Z,2.10
2023-05-23T18:40:55.862Z,2.20
2023-05-23T18:43:26.189Z,2.10
2023-05-23T18:45:37.123Z,2.30
2023-05-23T18:47:56.457Z,2.40
2023-05-23T18:50:10.728Z,2.00
2023-05-23T18:52:31.057Z,1.80
2023-05-23T18:54:53.860Z,2.70
2023-05-23T18:57:03.601Z,1.80
2023-05-23T18:59:16.124Z,2.30
2023-05-23T19:01:25.587Z,2.10
2023-05-23T19:03:37.463Z,2.50
2023-05-23T19:05:50.720Z,2.70
2023-05-23T19:08:03.753Z,2.50
2023-05-23T19:10:14.397Z,2.40
2023-05-23T19:12:24.029Z,2.10
2023-05-23T19:14:38.706Z,2.00
2023-05-23T19:17:00.638Z,2.40
2023-05-23T19:19:39.664Z,2.60
2023-05-23T19:21:49.222Z,2.00
2023-05-23T19:23:58.619Z,4.20
2023-05-23T19:26:08.376Z,2.10
2023-05-23T19:28:21.070Z,2.50
2023-05-23T19:30:30.598Z,2.20
2023-05-23T19:32:40.091Z,1.90
2023-05-23T19:34:49.790Z,2.30
2023-05-23T19:37:01.051Z,1.80
2023-05-23T19:39:10.309Z,2.30
2023-05-23T19:41:20.330Z,2.50
2023-05-23T19:43:29.685Z,2.80
2023-05-23T19:45:39.102Z,2.30
2023-05-23T19:47:48.516Z,2.00
2023-05-23T19:49:58.035Z,2.40
2023-05-23T19:52:08.053Z,2.70
2023-05-23T19:54:17.527Z,2.70
2023-05-23T19:56:27.686Z,2.20
2023-05-23T19:58:37.200Z,2.80
2023-05-23T20:00:57.678Z,2.90
2023-05-23T20:03:07.204Z,2.80
2023-05-23T20:05:17.689Z,3.00
2023-05-23T20:07:27.207Z,2.20
2023-05-23T20:09:36.747Z,2.40
2023-05-23T20:11:49.556Z,2.30
2023-05-23T20:13:58.817Z,2.50
2023-05-23T20:16:09.334Z,2.40
2023-05-23T20:18:19.101Z,2.40
2023-05-23T20:20:28.767Z,2.70
2023-05-23T20:22:38.084Z,2.80
2023-05-23T20:24:48.113Z,2.20
2023-05-23T20:27:01.302Z,2.00
2023-05-23T20:29:10.597Z,1.90
2023-05-23T20:31:21.362Z,2.20
2023-05-23T20:33:40.753Z,2.50
2023-05-23T20:35:50.601Z,2.30
2023-05-23T20:37:59.895Z,2.00
2023-05-23T20:40:11.258Z,2.70
2023-05-23T20:42:21.126Z,2.20
2023-05-23T20:44:30.556Z,2.10
2023-05-23T20:46:43.969Z,2.10
2023-05-23T20:48:57.798Z,2.10
2023-05-23T20:51:07.958Z,1.90
2023-05-23T20:53:17.370Z,2.20
2023-05-23T20:55:28.970Z,2.20
2023-05-23T20:59:46.830Z,2.10
2023-05-23T21:01:56.600Z,2.20
2023-05-23T21:04:06.332Z,2.50
2023-05-23T21:06:15.725Z,1.90
2023-05-23T21:08:25.339Z,2.40
2023-05-23T21:10:34.599Z,2.30
2023-05-23T21:12:49.576Z,2.00
2023-05-23T21:14:59.172Z,1.90
2023-05-23T21:17:08.945Z,2.00
2023-05-23T21:19:18.686Z,1.80
2023-05-23T21:21:28.280Z,1.90
2023-05-23T21:23:38.205Z,2.20
2023-05-23T21:25:47.657Z,2.00
2023-05-23T21:27:57.062Z,2.00
2023-05-23T21:30:06.899Z,2.30
2023-05-23T21:32:16.868Z,2.10
2023-05-23T21:34:26.257Z,2.40
2023-05-23T21:36:35.544Z,2.10
2023-05-23T21:38:44.935Z,1.90
2023-05-23T21:40:54.715Z,2.00
2023-05-23T21:43:04.491Z,2.20
2023-05-23T21:45:17.226Z,2.00
2023-05-23T21:47:26.606Z,2.20
2023-05-23T21:49:35.961Z,2.30
2023-05-23T21:51:45.232Z,2.60
2023-05-23T21:53:54.798Z,2.40
2023-05-23T21:56:04.186Z,2.00
2023-05-23T21:58:13.241Z,1.90
2023-05-23T22:00:24.200Z,2.50
2023-05-23T22:02:34.588Z,2.20
2023-05-23T22:04:45.262Z,2.30
2023-05-23T22:06:54.677Z,2.10
2023-05-23T22:09:04.025Z,2.90
2023-05-23T22:11:13.234Z,2.10
2023-05-23T22:13:22.550Z,2.70
2023-05-23T22:15:32.835Z,1.90
2023-05-23T22:17:43.891Z,2.10
2023-05-23T22:19:53.444Z,1.90
2023-05-23T22:22:02.960Z,1.80
2023-05-23T22:24:12.364Z,2.60
2023-05-23T22:26:22.280Z,2.00
2023-05-23T22:28:35.920Z,1.70
2023-05-23T22:30:45.238Z,1.90
2023-05-23T22:32:58.180Z,1.80
2023-05-23T22:35:08.113Z,2.00
2023-05-23T22:37:20.859Z,2.50
2023-05-23T22:39:30.286Z,2.60
2023-05-23T22:41:39.568Z,2.50
2023-05-23T22:43:49.077Z,2.50
2023-05-23T22:45:58.635Z,2.10
2023-05-23T22:48:18.711Z,2.20
2023-05-23T22:50:27.976Z,1.70
2023-05-23T22:52:40.752Z,1.90
2023-05-23T22:54:54.382Z,2.60
2023-05-23T22:57:03.973Z,2.00
2023-05-23T22:59:13.218Z,2.20
2023-05-23T23:01:22.697Z,2.70
2023-05-23T23:03:32.593Z,2.30
2023-05-23T23:05:42.414Z,1.80
2023-05-23T23:07:52.099Z,2.60
2023-05-23T23:10:05.543Z,2.20
2023-05-23T23:12:14.869Z,2.00
2023-05-23T23:14:27.720Z,1.90
2023-05-23T23:16:40.039Z,2.20
2023-05-23T23:18:59.546Z,1.80
2023-05-23T23:21:11.843Z,2.70
2023-05-23T23:23:24.638Z,2.00
2023-05-23T23:25:33.922Z,2.30
2023-05-23T23:27:46.514Z,1.90
2023-05-23T23:29:56.355Z,1.90
2023-05-23T23:32:05.781Z,1.70
2023-05-23T23:34:15.395Z,2.50
2023-05-23T23:36:24.716Z,2.80
2023-05-23T23:38:34.289Z,2.00
2023-05-23T23:40:45.869Z,2.10
2023-05-23T23:45:03.033Z,2.10
2023-05-23T23:47:12.920Z,2.50
2023-05-23T23:49:22.365Z,2.70
2023-05-23T23:51:32.534Z,2.60
2023-05-23T23:53:42.139Z,2.60
2023-05-23T23:55:52.199Z,2.70
2023-05-23T23:58:01.553Z,2.40
